createdAt,value
2022-12-19T00:00:10.637Z,101657.34
2022-12-19T00:02:42.681Z,101665.91
2022-12-19T00:05:11.132Z,101649.63
2022-12-19T00:07:38.644Z,101654.78
2022-12-19T00:10:07.093Z,101640.19
2022-12-19T00:12:34.624Z,101627.31
2022-12-19T00:15:02.109Z,101622.19
2022-12-19T00:17:29.549Z,101616.19
2022-12-19T00:19:57.097Z,101608.47
2022-12-19T00:22:24.635Z,101598.19
2022-12-19T00:24:52.112Z,101614.50
2022-12-19T00:27:19.477Z,101602.53
2022-12-19T00:29:47.506Z,101610.25
2022-12-19T00:32:16.141Z,101614.53
2022-12-19T00:34:44.113Z,101590.50
2022-12-19T00:37:11.962Z,101580.22
2022-12-19T00:39:39.399Z,101587.09
2022-12-19T00:42:06.959Z,101576.81
2022-12-19T00:44:34.391Z,101569.94
2022-12-19T00:47:01.827Z,101560.50
2022-12-19T00:49:30.806Z,101550.19
2022-12-19T00:52:00.021Z,101551.03
2022-12-19T00:54:27.613Z,101542.47
2022-12-19T00:56:55.465Z,101536.47
2022-12-19T00:59:26.578Z,101539.03
2022-12-19T01:01:57.697Z,101551.06
2022-12-19T01:04:28.660Z,101543.31
2022-12-19T01:07:01.620Z,101535.59
2022-12-19T01:09:34.235Z,101531.31
2022-12-19T01:12:24.002Z,101529.56
2022-12-19T01:15:03.974Z,101530.41
2022-12-19T01:17:43.488Z,101537.31
2022-12-19T01:20:24.923Z,101525.25
2022-12-19T01:23:00.198Z,101535.56
2022-12-19T01:25:28.634Z,101531.28
2022-12-19T01:27:57.023Z,101520.09
2022-12-19T01:30:24.450Z,101517.50
2022-12-19T01:32:52.078Z,101520.06
2022-12-19T01:35:22.078Z,101504.59
2022-12-19T01:37:58.766Z,101506.31
2022-12-19T01:40:36.195Z,101494.28
2022-12-19T01:43:03.806Z,101506.31
2022-12-19T01:45:43.608Z,101500.31
2022-12-19T01:48:38.220Z,101498.56
2022-12-19T01:51:18.436Z,101502.88
2022-12-19T01:54:03.536Z,101499.41
2022-12-19T01:56:36.631Z,101492.56
2022-12-19T01:59:14.388Z,101485.66
2022-12-19T02:01:51.540Z,101489.97
2022-12-19T02:04:25.062Z,101488.25
2022-12-19T02:06:55.172Z,101481.34
2022-12-19T02:09:25.267Z,101486.50
2022-12-19T02:11:53.675Z,101467.59
2022-12-19T02:14:22.074Z,101472.72
2022-12-19T02:17:43.262Z,101455.50
2022-12-19T02:20:26.845Z,101454.63
2022-12-19T02:23:24.329Z,101470.94
2022-12-19T02:26:10.428Z,101468.34
2022-12-19T02:29:05.578Z,101456.31
2022-12-19T02:31:46.728Z,101464.06
2022-12-19T02:34:56.637Z,101438.22
2022-12-19T02:37:30.853Z,101436.47
2022-12-19T02:40:04.215Z,101452.78
2022-12-19T02:42:39.462Z,101445.91
2022-12-19T02:45:10.076Z,101445.88
2022-12-19T02:47:39.222Z,101438.06
2022-12-19T02:50:08.013Z,101426.03
2022-12-19T02:52:35.627Z,101426.84
2022-12-19T02:55:11.565Z,101417.38
2022-12-19T02:58:00.263Z,101404.41
2022-12-19T03:00:28.773Z,101404.41
2022-12-19T03:03:21.740Z,101411.28
2022-12-19T03:06:18.710Z,101409.56
2022-12-19T03:09:24.447Z,101413.84
2022-12-19T03:12:04.612Z,101407.84
2022-12-19T03:14:34.779Z,101414.69
2022-12-19T03:17:07.874Z,101409.50
2022-12-19T03:19:38.627Z,101411.22
2022-12-19T03:22:06.876Z,101404.28
2022-12-19T03:24:34.471Z,101411.16
2022-12-19T03:27:19.101Z,101408.56
2022-12-19T03:29:55.028Z,101397.41
2022-12-19T03:32:24.516Z,101408.53
2022-12-19T03:35:00.441Z,101399.06
2022-12-19T03:37:32.690Z,101400.78
2022-12-19T03:40:05.944Z,101387.84
2022-12-19T03:42:56.143Z,101392.13
2022-12-19T03:46:02.692Z,101380.06
2022-12-19T03:48:47.274Z,101386.91
2022-12-19T03:51:37.324Z,101384.28
2022-12-19T03:54:23.494Z,101386.84
2022-12-19T03:57:16.171Z,101379.84
2022-12-19T04:00:07.872Z,101377.22
2022-12-19T04:02:46.284Z,101379.72
2022-12-19T04:05:21.852Z,101373.66
2022-12-19T04:07:52.232Z,101376.19
2022-12-19T04:10:24.870Z,101377.03
2022-12-19T04:13:01.805Z,101369.22
2022-12-19T04:16:09.998Z,101368.31
2022-12-19T04:18:40.450Z,101360.56
2022-12-19T04:21:40.615Z,101357.91
2022-12-19T04:24:21.624Z,101364.75
2022-12-19T04:26:52.285Z,101351.78
2022-12-19T04:29:20.189Z,101343.13
2022-12-19T04:31:48.208Z,101346.47
2022-12-19T04:34:19.968Z,101351.63
2022-12-19T04:36:49.593Z,101342.16
2022-12-19T04:39:16.980Z,101348.94
2022-12-19T04:41:44.459Z,101341.13
2022-12-19T04:44:12.105Z,101335.06
2022-12-19T04:46:39.756Z,101333.25
2022-12-19T04:49:07.197Z,101337.56
2022-12-19T04:51:34.811Z,101345.28
2022-12-19T04:54:02.165Z,101344.34
2022-12-19T04:56:29.636Z,101330.47
2022-12-19T04:58:58.520Z,101344.19
2022-12-19T05:01:26.365Z,101345.88
2022-12-19T05:03:57.549Z,101351.03
2022-12-19T05:06:27.480Z,101348.38
2022-12-19T05:08:55.615Z,101347.44
2022-12-19T05:11:23.189Z,101348.22
2022-12-19T05:13:50.673Z,101348.13
2022-12-19T05:16:18.865Z,101339.38
2022-12-19T05:18:46.518Z,101341.91
2022-12-19T05:21:14.308Z,101340.91
2022-12-19T05:23:41.753Z,101331.28
2022-12-19T05:26:10.909Z,101325.91
2022-12-19T05:28:39.197Z,101321.41
2022-12-19T05:31:13.776Z,101333.41
2022-12-19T05:33:42.484Z,101318.50
2022-12-19T05:36:11.257Z,101326.94
2022-12-19T05:38:38.753Z,101317.22
2022-12-19T05:41:15.068Z,101324.88
2022-12-19T05:43:43.694Z,101322.19
2022-12-19T05:46:11.465Z,101325.44
2022-12-19T05:48:39.371Z,101320.13
2022-12-19T05:51:06.857Z,101317.41
2022-12-19T05:53:40.976Z,101312.88
2022-12-19T05:56:09.758Z,101315.38
2022-12-19T05:58:39.490Z,101304.13
2022-12-19T06:01:21.484Z,101318.59
2022-12-19T06:03:49.280Z,101316.81
2022-12-19T06:06:21.849Z,101312.38
2022-12-19T06:08:52.987Z,101318.31
2022-12-19T06:11:20.390Z,101326.00
2022-12-19T06:13:47.887Z,101315.47
2022-12-19T06:16:18.170Z,101313.75
2022-12-19T06:18:46.138Z,101325.78
2022-12-19T06:21:22.030Z,101327.47
2022-12-19T06:23:49.738Z,101309.94
2022-12-19T06:26:20.521Z,101308.22
2022-12-19T06:28:49.548Z,101311.63
2022-12-19T06:31:18.005Z,101318.53
2022-12-19T06:33:45.926Z,101320.13
2022-12-19T06:36:27.419Z,101326.09
2022-12-19T06:38:57.926Z,101330.41
2022-12-19T06:41:44.357Z,101319.97
2022-12-19T06:44:14.186Z,101326.84
2022-12-19T06:46:42.519Z,101338.06
2022-12-19T06:49:11.049Z,101337.91
2022-12-19T06:51:38.484Z,101327.47
2022-12-19T06:54:06.152Z,101336.06
2022-12-19T06:56:38.281Z,101336.94
2022-12-19T06:59:07.715Z,101335.09
2022-12-19T07:02:17.351Z,101335.00
2022-12-19T07:04:50.408Z,101342.75
2022-12-19T07:07:17.975Z,101340.97
2022-12-19T07:09:45.507Z,101325.25
2022-12-19T07:12:12.895Z,101331.97
2022-12-19T07:14:40.278Z,101337.16
2022-12-19T07:17:07.888Z,101324.91
2022-12-19T07:19:35.904Z,101343.94
2022-12-19T07:22:04.722Z,101345.59
2022-12-19T07:24:32.957Z,101320.47
2022-12-19T07:27:00.468Z,101335.16
2022-12-19T07:29:28.178Z,101337.72
2022-12-19T07:31:55.720Z,101333.34
2022-12-19T07:34:23.276Z,101328.09
2022-12-19T07:36:50.773Z,101343.72
2022-12-19T07:39:18.653Z,101335.91
2022-12-19T07:41:46.078Z,101334.09
2022-12-19T07:44:15.928Z,101334.03
2022-12-19T07:46:43.652Z,101338.34
2022-12-19T07:49:11.090Z,101338.31
2022-12-19T07:51:38.513Z,101339.09
2022-12-19T07:54:06.343Z,101343.47
2022-12-19T07:56:33.760Z,101335.63
2022-12-19T07:59:01.251Z,101345.16
2022-12-19T08:01:29.458Z,101357.28
2022-12-19T08:03:58.728Z,101351.22
2022-12-19T08:06:27.033Z,101378.09
2022-12-19T08:08:54.754Z,101380.63
2022-12-19T08:11:27.100Z,101362.44
2022-12-19T08:13:54.785Z,101362.44
2022-12-19T08:16:24.298Z,101360.66
2022-12-19T08:18:52.074Z,101370.16
2022-12-19T08:21:20.234Z,101351.06
2022-12-19T08:23:47.659Z,101370.06
2022-12-19T08:26:19.272Z,101360.50
2022-12-19T08:28:48.217Z,101377.81
2022-12-19T08:31:17.889Z,101366.50
2022-12-19T08:33:46.359Z,101350.84
2022-12-19T08:36:16.569Z,101356.03
2022-12-19T08:38:44.355Z,101362.75
2022-12-19T08:41:11.925Z,101369.72
2022-12-19T08:43:39.638Z,101371.25
2022-12-19T08:46:07.871Z,101378.09
2022-12-19T08:48:36.197Z,101373.72
2022-12-19T08:51:06.879Z,101363.19
2022-12-19T08:53:38.359Z,101374.41
2022-12-19T08:56:12.912Z,101396.06
2022-12-19T08:58:40.295Z,101373.41
2022-12-19T09:01:13.841Z,101382.88
2022-12-19T09:04:11.283Z,101379.34
2022-12-19T09:06:29.356Z,101376.66
2022-12-19T09:09:00.161Z,101365.19
2022-12-19T09:11:28.104Z,101375.44
2022-12-19T09:13:58.031Z,101373.50
2022-12-19T09:16:27.792Z,101385.41
2022-12-19T09:18:58.820Z,101380.16
2022-12-19T09:21:29.512Z,101389.59
2022-12-19T09:24:07.118Z,101378.25
2022-12-19T09:26:38.224Z,101392.03
2022-12-19T09:29:10.962Z,101387.56
2022-12-19T09:31:55.651Z,101397.06
2022-12-19T09:34:37.124Z,101386.63
2022-12-19T09:37:17.180Z,101395.31
2022-12-19T09:39:46.868Z,101390.97
2022-12-19T09:42:22.065Z,101389.16
2022-12-19T09:45:31.835Z,101383.06
2022-12-19T09:48:01.689Z,101402.88
2022-12-19T09:51:10.324Z,101388.94
2022-12-19T09:54:06.174Z,101390.50
2022-12-19T09:56:46.516Z,101396.50
2022-12-19T09:59:49.589Z,101391.94
2022-12-19T10:02:35.563Z,101397.13
2022-12-19T10:07:04.328Z,101399.59
2022-12-19T10:08:38.074Z,101400.47
2022-12-19T10:12:43.722Z,101394.22
2022-12-19T10:15:20.191Z,101399.34
2022-12-19T10:18:06.204Z,101406.19
2022-12-19T10:20:38.711Z,101403.47
2022-12-19T10:23:36.125Z,101391.13
2022-12-19T10:26:30.745Z,101382.28
2022-12-19T10:29:48.853Z,101398.66
2022-12-19T10:32:30.739Z,101402.03
2022-12-19T10:34:58.041Z,101378.56
2022-12-19T10:37:40.691Z,101385.41
2022-12-19T10:40:27.578Z,101401.06
2022-12-19T10:43:19.127Z,101395.69
2022-12-19T10:46:01.243Z,101401.75
2022-12-19T10:48:30.823Z,101387.81
2022-12-19T10:51:06.379Z,101398.16
2022-12-19T10:53:34.473Z,101386.09
2022-12-19T10:56:12.490Z,101386.25
2022-12-19T10:58:44.350Z,101389.16
2022-12-19T11:01:35.764Z,101378.00
2022-12-19T11:04:27.055Z,101384.28
2022-12-19T11:07:03.539Z,101385.28
2022-12-19T11:09:49.948Z,101381.91
2022-12-19T11:15:39.773Z,101376.84
2022-12-19T11:20:25.185Z,101380.41
2022-12-19T11:29:16.787Z,101379.66
2022-12-19T11:29:38.399Z,101368.34
2022-12-19T11:29:42.536Z,101365.78
2022-12-19T11:30:48.173Z,101370.13
2022-12-19T11:33:24.134Z,101350.94
2022-12-19T11:35:55.981Z,101357.81
2022-12-19T11:38:48.618Z,101356.94
2022-12-19T11:41:25.718Z,101354.31
2022-12-19T11:44:02.085Z,101363.00
2022-12-19T11:46:49.272Z,101353.44
2022-12-19T11:49:38.609Z,101347.19
2022-12-19T11:53:14.573Z,101349.59
2022-12-19T11:55:58.359Z,101339.09
2022-12-19T11:58:31.553Z,101335.38
2022-12-19T12:01:58.919Z,101339.44
2022-12-19T12:05:06.508Z,101342.66
2022-12-19T12:07:47.983Z,101339.94
2022-12-19T12:13:51.852Z,101345.72
2022-12-19T12:29:47.082Z,101349.91
2022-12-19T12:31:00.020Z,101352.19
2022-12-19T12:31:15.312Z,101343.22
2022-12-19T12:31:40.920Z,101325.06
2022-12-19T12:31:54.265Z,101338.44
2022-12-19T12:31:57.036Z,101345.56
2022-12-19T12:35:33.438Z,101316.19
2022-12-19T12:38:25.580Z,101313.19
2022-12-19T12:41:43.457Z,101306.91
2022-12-19T12:44:13.302Z,101306.75
2022-12-19T12:47:17.919Z,101322.31
2022-12-19T12:50:05.638Z,101311.75
2022-12-19T12:52:49.984Z,101325.47
2022-12-19T12:55:41.353Z,101317.53
2022-12-19T12:58:46.011Z,101309.56
2022-12-19T13:01:36.822Z,101318.09
2022-12-19T13:04:13.122Z,101307.53
2022-12-19T13:07:20.080Z,101297.63
2022-12-19T13:10:20.676Z,101299.09
2022-12-19T13:13:16.502Z,101291.25
2022-12-19T13:15:46.318Z,101290.94
2022-12-19T13:18:35.502Z,101277.81
2022-12-19T13:21:05.708Z,101266.56
2022-12-19T13:23:42.299Z,101268.97
2022-12-19T13:26:42.482Z,101244.50
2022-12-19T13:29:34.459Z,101230.06
2022-12-19T13:32:14.553Z,101226.78
2022-12-19T13:35:06.930Z,101223.72
2022-12-19T13:39:59.854Z,101236.84
2022-12-19T13:41:22.912Z,101243.84
2022-12-19T13:43:50.133Z,101221.28
2022-12-19T13:46:23.430Z,101226.41
2022-12-19T13:48:55.321Z,101209.03
2022-12-19T13:51:22.611Z,101219.41
2022-12-19T13:53:59.358Z,101221.03
2022-12-19T13:56:30.994Z,101203.44
2022-12-19T13:59:03.586Z,101213.91
2022-12-19T14:01:37.336Z,101207.84
2022-12-19T14:04:25.319Z,101222.69
2022-12-19T14:07:06.759Z,101214.13
2022-12-19T14:11:26.807Z,101217.84
2022-12-19T14:13:58.227Z,101208.41
2022-12-19T14:15:52.497Z,101201.63
2022-12-19T14:18:43.096Z,101186.97
2022-12-19T14:22:07.897Z,101191.31
2022-12-19T14:24:25.133Z,101187.81
2022-12-19T14:28:24.404Z,101192.16
2022-12-19T14:30:31.917Z,101192.78
2022-12-19T14:33:44.566Z,101190.03
2022-12-19T14:36:05.958Z,101193.47
2022-12-19T14:39:22.991Z,101195.94
2022-12-19T14:41:47.019Z,101204.63
2022-12-19T14:53:08.701Z,101190.09
2022-12-19T14:53:52.662Z,101197.56
2022-12-19T14:54:32.372Z,101176.97
2022-12-19T14:54:34.888Z,101178.75
2022-12-19T14:56:36.378Z,101170.75
2022-12-19T14:59:45.677Z,101175.94
2022-12-19T15:02:33.937Z,101197.63
2022-12-19T15:05:26.229Z,101189.78
2022-12-19T15:07:58.037Z,101192.25
2022-12-19T15:11:08.943Z,101201.81
2022-12-19T15:14:53.992Z,101204.44
2022-12-19T15:16:07.515Z,101196.53
2022-12-19T15:18:41.630Z,101192.13
2022-12-19T15:21:15.700Z,101193.84
2022-12-19T15:23:45.218Z,101204.22
2022-12-19T15:26:42.953Z,101200.72
2022-12-19T15:29:19.822Z,101203.25
2022-12-19T15:31:49.787Z,101204.88
2022-12-19T15:34:44.392Z,101217.13
2022-12-19T15:37:16.308Z,101217.03
2022-12-19T15:39:44.977Z,101220.44
2022-12-19T15:42:27.702Z,101222.22
2022-12-19T15:44:57.992Z,101216.28
2022-12-19T15:47:25.746Z,101240.47
2022-12-19T15:49:52.788Z,101234.31
2022-12-19T15:52:21.333Z,101229.16
2022-12-19T15:54:50.316Z,101220.38
2022-12-19T15:57:29.129Z,101222.06
2022-12-19T16:00:04.833Z,101222.84
2022-12-19T16:05:22.558Z,101227.19
2022-12-19T16:07:50.216Z,101233.19
2022-12-19T16:10:18.208Z,101230.63
2022-12-19T16:12:55.351Z,101230.69
2022-12-19T16:15:35.687Z,101231.63
2022-12-19T16:18:04.301Z,101228.16
2022-12-19T16:20:37.873Z,101208.22
2022-12-19T16:23:05.046Z,101219.06
2022-12-19T16:25:52.838Z,101234.91
2022-12-19T16:28:34.943Z,101226.19
2022-12-19T16:31:16.667Z,101220.91
2022-12-19T16:33:43.844Z,101230.56
2022-12-19T16:36:10.921Z,101241.03
2022-12-19T16:38:38.774Z,101231.44
2022-12-19T16:41:24.852Z,101224.34
2022-12-19T16:43:55.107Z,101211.41
2022-12-19T16:46:23.871Z,101221.81
2022-12-19T16:48:51.124Z,101225.34
2022-12-19T16:51:27.469Z,101233.19
2022-12-19T16:53:58.894Z,101222.66
2022-12-19T16:56:37.808Z,101229.66
2022-12-19T16:59:37.182Z,101228.81
2022-12-19T17:02:57.548Z,101206.94
2022-12-19T17:05:31.521Z,101213.75
2022-12-19T17:07:59.892Z,101205.84
2022-12-19T17:10:35.334Z,101208.31
2022-12-19T17:13:03.538Z,101200.69
2022-12-19T17:15:41.099Z,101216.56
2022-12-19T17:18:35.856Z,101213.91
2022-12-19T17:21:15.878Z,101201.66
2022-12-19T17:23:43.147Z,101213.81
2022-12-19T17:26:17.687Z,101225.19
2022-12-19T17:28:48.358Z,101224.50
2022-12-19T17:31:29.512Z,101213.97
2022-12-19T17:33:58.039Z,101225.34
2022-12-19T17:36:36.699Z,101209.69
2022-12-19T17:39:34.700Z,101211.28
2022-12-19T17:42:13.775Z,101213.81
2022-12-19T17:44:40.851Z,101231.25
2022-12-19T17:47:12.517Z,101206.88
2022-12-19T17:49:39.684Z,101223.38
2022-12-19T17:52:19.869Z,101204.19
2022-12-19T17:54:47.381Z,101202.44
2022-12-19T17:57:16.895Z,101206.88
2022-12-19T17:59:46.612Z,101201.38
2022-12-19T18:02:23.463Z,101228.41
2022-12-19T18:04:51.674Z,101210.72
2022-12-19T18:07:19.513Z,101210.81
2022-12-19T18:09:46.806Z,101221.19
2022-12-19T18:12:14.569Z,101205.69
2022-12-19T18:14:41.749Z,101211.13
2022-12-19T18:17:13.652Z,101197.22
2022-12-19T18:19:40.838Z,101204.13
2022-12-19T18:22:14.307Z,101200.69
2022-12-19T18:24:41.710Z,101202.59
2022-12-19T18:27:09.234Z,101217.41
2022-12-19T18:29:36.337Z,101228.75
2022-12-19T18:32:03.555Z,101209.50
2022-12-19T18:34:32.737Z,101227.75
2022-12-19T18:36:59.973Z,101226.00
2022-12-19T18:39:29.152Z,101227.75
2022-12-19T18:41:56.345Z,101219.97
2022-12-19T18:44:23.641Z,101220.78
2022-12-19T18:46:52.640Z,101221.69
2022-12-19T18:49:20.144Z,101226.72
2022-12-19T18:51:47.270Z,101226.00
2022-12-19T18:54:18.527Z,101232.97
2022-12-19T18:56:47.149Z,101223.38
2022-12-19T18:59:14.495Z,101220.69
2022-12-19T19:01:47.269Z,101239.72
2022-12-19T19:04:18.035Z,101234.63
2022-12-19T19:06:51.642Z,101232.91
2022-12-19T19:09:21.527Z,101219.91
2022-12-19T19:11:57.436Z,101222.25
2022-12-19T19:14:24.617Z,101221.53
2022-12-19T19:16:52.495Z,101227.81
2022-12-19T19:19:19.806Z,101234.91
2022-12-19T19:21:47.160Z,101226.06
2022-12-19T19:24:21.760Z,101228.81
2022-12-19T19:26:49.690Z,101234.91
2022-12-19T19:29:19.533Z,101234.91
2022-12-19T19:31:53.376Z,101235.66
2022-12-19T19:34:29.490Z,101241.63
2022-12-19T19:37:00.604Z,101226.91
2022-12-19T19:39:28.279Z,101240.69
2022-12-19T19:41:56.388Z,101248.56
2022-12-19T19:44:23.699Z,101252.88
2022-12-19T19:46:51.514Z,101243.31
2022-12-19T19:49:20.274Z,101237.09
2022-12-19T19:51:47.384Z,101245.78
2022-12-19T19:54:14.699Z,101251.97
2022-12-19T19:56:41.962Z,101245.78
2022-12-19T19:59:09.095Z,101245.88
2022-12-19T20:01:36.304Z,101253.84
2022-12-19T20:04:04.115Z,101245.28
2022-12-19T20:06:31.672Z,101247.97
2022-12-19T20:08:58.784Z,101251.50
2022-12-19T20:11:25.935Z,101248.81
2022-12-19T20:13:53.324Z,101252.38
2022-12-19T20:16:20.723Z,101258.56
2022-12-19T20:18:51.907Z,101265.53
2022-12-19T20:21:20.189Z,101262.84
2022-12-19T20:23:47.563Z,101272.44
2022-12-19T20:26:16.405Z,101263.69
2022-12-19T20:28:49.108Z,101247.13
2022-12-19T20:31:20.529Z,101259.47
2022-12-19T20:33:48.567Z,101268.25
2022-12-19T20:36:16.530Z,101263.81
2022-12-19T20:38:43.903Z,101271.78
2022-12-19T20:41:11.169Z,101264.00
2022-12-19T20:43:38.994Z,101276.97
2022-12-19T20:46:12.258Z,101275.13
2022-12-19T20:48:40.191Z,101269.88
2022-12-19T20:51:08.775Z,101256.88
2022-12-19T20:53:37.200Z,101263.75
2022-12-19T20:56:05.831Z,101268.19
2022-12-19T20:58:35.582Z,101268.25
2022-12-19T21:01:21.997Z,101266.69
2022-12-19T21:03:49.550Z,101270.28
2022-12-19T21:06:19.340Z,101267.78
2022-12-19T21:08:47.062Z,101276.69
2022-12-19T21:11:15.604Z,101279.38
2022-12-19T21:13:43.773Z,101279.38
2022-12-19T21:16:19.752Z,101296.69
2022-12-19T21:18:48.470Z,101286.41
2022-12-19T21:21:23.555Z,101288.19
2022-12-19T21:23:51.258Z,101287.41
2022-12-19T21:26:19.389Z,101288.38
2022-12-19T21:28:46.885Z,101286.63
2022-12-19T21:31:21.410Z,101284.69
2022-12-19T21:33:49.447Z,101274.34
2022-12-19T21:36:20.811Z,101254.31
2022-12-19T21:38:51.077Z,101277.09
2022-12-19T21:41:19.310Z,101280.59
2022-12-19T21:43:53.502Z,101267.53
2022-12-19T21:46:30.099Z,101282.31
2022-12-19T21:48:57.869Z,101275.38
2022-12-19T21:51:29.146Z,101264.13
2022-12-19T21:54:01.653Z,101267.59
2022-12-19T21:56:30.180Z,101261.47
2022-12-19T21:59:01.913Z,101267.34
2022-12-19T22:01:30.587Z,101263.81
2022-12-19T22:04:00.398Z,101257.44
2022-12-19T22:06:31.831Z,101260.00
2022-12-19T22:09:00.533Z,101258.25
2022-12-19T22:11:29.048Z,101261.66
2022-12-19T22:13:58.030Z,101267.59
2022-12-19T22:16:25.208Z,101256.94
2022-12-19T22:18:53.152Z,101260.28
2022-12-19T22:21:20.854Z,101254.19
2022-12-19T22:23:48.005Z,101250.47
2022-12-19T22:26:19.438Z,101240.97
2022-12-19T22:28:50.215Z,101243.59
2022-12-19T22:31:23.940Z,101235.03
2022-12-19T22:33:55.122Z,101218.50
2022-12-19T22:36:28.449Z,101211.69
2022-12-19T22:38:58.486Z,101218.81
2022-12-19T22:41:26.813Z,101211.81
2022-12-19T22:43:54.952Z,101202.25
2022-12-19T22:46:24.010Z,101198.81
2022-12-19T22:48:51.194Z,101197.91
2022-12-19T22:51:20.222Z,101205.69
2022-12-19T22:53:48.157Z,101202.13
2022-12-19T22:56:21.700Z,101202.19
2022-12-19T22:58:51.859Z,101201.22
2022-12-19T23:01:29.615Z,101208.28
2022-12-19T23:04:00.693Z,101209.34
2022-12-19T23:06:31.494Z,101205.00
2022-12-19T23:08:58.762Z,101195.34
2022-12-19T23:11:34.859Z,101189.25
2022-12-19T23:14:04.023Z,101175.81
2022-12-19T23:16:31.381Z,101191.25
2022-12-19T23:18:58.536Z,101194.41
2022-12-19T23:21:26.891Z,101204.66
2022-12-19T23:23:56.328Z,101202.69
2022-12-19T23:26:29.195Z,101209.41
2022-12-19T23:28:59.995Z,101202.25
2022-12-19T23:31:28.263Z,101196.75
2022-12-19T23:33:56.844Z,101196.69
2022-12-19T23:37:00.367Z,101206.09
2022-12-19T23:39:13.006Z,101207.63
2022-12-19T23:41:40.344Z,101206.66
2022-12-19T23:44:08.677Z,101198.72
2022-12-19T23:46:36.008Z,101195.06
2022-12-19T23:49:03.755Z,101188.81
2022-12-19T23:51:31.462Z,101186.13
2022-12-19T23:53:58.998Z,101188.75
2022-12-19T23:56:29.787Z,101168.44
2022-12-19T23:58:57.712Z,101171.00
